Terminal Aerodrome Forecast
Issued by NWS

Home | Current Version | Previous Version | Text Only | Print | Product List | Glossary On
Versions: 1 2 3 4 5 6 7 8 9 10 11 12 13 14 15 16 17 18 19 20 21 22 23 24 25 26 27 28 29 30 31 32 33 34 35 36 37 38 39
000
FTUS45 KCYS 251740
TAFRWL
TAF
KRWL 251740Z 2518/2618 35014G25KT 3/4SM -SN BR OVC012
      TEMPO 2518/2522 1/4SM SN FZFG VV003
     FM252200 04013KT 1/2SM SN FZFG VV008
     FM260300 05009KT 2SM -SN BR OVC013
     FM260800 05008KT 1/2SM FZFG OVC008
     FM261500 05008KT 5SM BR OVC015=

USA.gov is the U.S. government's official web portal to all federal, state and local government web resources and services.